首页
METAR-TAF:

METAR-TAF

机场 :

辛菲羅波爾國際機場

辛菲罗波尔, 俄罗斯

纬度: 45-03-08N, 经度: 033-58-31E, 海拔: 195米

当前天气观测

该预报发布于38分钟前的15:00 UTC
风速14节,风向西转西南,有时为23节阵风
温度 19°C
湿度 60%
气压 1008 hPa
能见度10公里或以上
少量云层高于2700英尺, 积雨云.

METAR: URFF 011500Z 25007G12MPS 9999 FEW027CB 19/11 Q1008 R19/090095 NOSIG

时间: 18:38 (15:38 UTC)

预报

该预报发布于1小时和49分钟前的13:49 UTC
预报有效从01日的 15点(UTC)到 02日的 15点(UTC)
风速14节,风向西南,有时为25节阵风
能见度10公里或以上
散云层高于3000英尺, 积雨云.
几率 40% :
短暂存在
从 01日的 15点(UTC)到 01日的 18点(UTC)
多云层高于2000英尺, 积雨云.
雷暴, 小雨
从 01日的 1800点(UTC)
风速6节,风向
能见度10公里或以上
1500米以下无云,无积雨云
从 02日的 1200点(UTC)
风速10节,风向西转西南,有时为19节阵风
能见度10公里或以上
散云层高于3000英尺, 积雨云.

TAF: URFF 011349Z 0115/0215 23007G13MPS 9999 SCT030CB TX20/0211Z TN11/0202Z PROB40 TEMPO 0115/0118 -TSRA BKN020CB FM011800 19003MPS CAVOK FM021200 24005G10MPS 9999 SCT030CB

超过4000个机场的气象观测和天气预报(METAR&TAF报告)。

可查询的气象台以黄色和红色小点在地图上表示。

将鼠标移到小点上方,可查看气象台名称。

然后点击查看天气观测和预报。

如需切换地图:点击带黑十字的绿色按钮放大地图;点击带横线的绿色按钮缩小地图;或者点击绿色箭头查看邻近地区的地图。


METAR-TAF: